Time;durP1;ratioP1;P1;durP2;ratioP2;P2;SDS_P1;SDS_P2;PMS_P1;PMS_P2;Temp;Humidity;BMP_temperature;BMP_pressure;BME280_temperature;BME280_humidity;BME280_pressure;Samples;Min_cycle;Max_cycle;Signal;HPM_P1;HPM_P2
2022/07/27 00:01:11;;;;;;;10.80;7.43;;;29.00;56.70;;;;;;5076383;28;20252;-75
2022/07/27 00:03:41;;;;;;;13.00;7.15;;;28.90;56.90;;;;;;5077783;28;20684;-76
2022/07/27 00:06:09;;;;;;;11.07;7.07;;;28.90;57.00;;;;;;5076954;28;20197;-76
2022/07/27 00:08:38;;;;;;;17.33;8.05;;;28.80;57.00;;;;;;5069190;28;20198;-77
2022/07/27 00:11:07;;;;;;;13.80;8.20;;;28.80;57.40;;;;;;5070324;28;20226;-74
2022/07/27 00:13:36;;;;;;;12.10;7.40;;;28.70;57.40;;;;;;5075277;28;20189;-78
2022/07/27 00:16:05;;;;;;;17.38;8.23;;;28.70;57.30;;;;;;5073525;28;20225;-78
2022/07/27 00:18:35;;;;;;;16.05;8.00;;;28.70;57.30;;;;;;5064890;28;20205;-77
2022/07/27 00:21:03;;;;;;;11.88;7.00;;;28.60;57.30;;;;;;5080528;28;20658;-78
2022/07/27 00:23:32;;;;;;;11.60;7.65;;;28.60;57.30;;;;;;5074709;28;20193;-78
2022/07/27 00:26:01;;;;;;;11.70;7.15;;;28.60;57.50;;;;;;5073255;28;20190;-77
2022/07/27 00:28:29;;;;;;;15.88;7.90;;;28.60;57.50;;;;;;5073229;28;20194;-77
2022/07/27 00:30:58;;;;;;;12.80;7.65;;;28.60;57.60;;;;;;5071981;28;20582;-77
2022/07/27 00:33:26;;;;;;;11.68;7.35;;;28.50;57.70;;;;;;5080934;28;20196;-76
2022/07/27 00:35:57;;;;;;;11.30;7.40;;;28.50;57.80;;;;;;5063097;28;20213;-77
2022/07/27 00:38:26;;;;;;;11.50;7.45;;;28.50;57.90;;;;;;5076267;28;20212;-77
2022/07/27 00:40:54;;;;;;;13.18;8.52;;;28.40;57.80;;;;;;5064367;28;20199;-76
2022/07/27 00:43:23;;;;;;;14.15;7.65;;;28.40;57.90;;;;;;5076767;28;20189;-76
2022/07/27 00:45:51;;;;;;;10.93;7.43;;;28.40;57.90;;;;;;5073787;28;20194;-76
2022/07/27 00:48:20;;;;;;;11.38;7.53;;;28.40;58.00;;;;;;5071985;28;20663;-77
2022/07/27 00:50:48;;;;;;;12.70;8.10;;;28.40;58.10;;;;;;5067823;28;20197;-78
2022/07/27 00:53:18;;;;;;;12.98;8.77;;;28.40;58.10;;;;;;5079878;28;20196;-77
2022/07/27 00:55:46;;;;;;;11.55;7.70;;;28.30;58.20;;;;;;5073938;28;20195;-77
2022/07/27 00:58:16;;;;;;;12.68;7.57;;;28.30;58.30;;;;;;5064313;28;20195;-76
2022/07/27 01:00:45;;;;;;;11.00;7.28;;;28.30;58.40;;;;;;5072439;28;20198;-77
2022/07/27 01:03:14;;;;;;;12.27;7.90;;;28.30;58.30;;;;;;5076871;28;20189;-76
2022/07/27 01:05:43;;;;;;;14.75;7.97;;;28.30;58.30;;;;;;5077646;28;20190;-76
2022/07/27 01:08:13;;;;;;;13.75;7.65;;;28.30;58.40;;;;;;5078184;28;20205;-76
2022/07/27 01:10:44;;;;;;;20.05;9.05;;;28.30;58.40;;;;;;5070625;28;20214;-74
2022/07/27 01:13:13;;;;;;;16.15;9.32;;;28.30;58.40;;;;;;5066640;28;20564;-73
2022/07/27 01:15:43;;;;;;;16.63;8.98;;;28.30;58.50;;;;;;5073439;28;20560;-74
2022/07/27 01:18:12;;;;;;;14.82;8.88;;;28.20;58.50;;;;;;5075655;28;20873;-73
2022/07/27 01:20:41;;;;;;;14.35;8.43;;;28.20;59.30;;;;;;5076175;28;20182;-73
2022/07/27 01:23:11;;;;;;;14.13;8.23;;;28.20;58.90;;;;;;5079727;28;20190;-73
2022/07/27 01:25:41;;;;;;;17.35;8.88;;;28.20;59.70;;;;;;5072307;28;20205;-74
2022/07/27 01:28:10;;;;;;;12.32;7.82;;;28.10;59.10;;;;;;5065796;28;20603;-74
2022/07/27 01:30:39;;;;;;;14.98;8.15;;;28.10;59.40;;;;;;5059406;28;20201;-73
2022/07/27 01:33:08;;;;;;;14.98;9.13;;;28.10;59.50;;;;;;5076524;28;20221;-73
2022/07/27 01:35:38;;;;;;;15.50;8.57;;;28.10;59.60;;;;;;5076115;28;20773;-74
2022/07/27 01:38:07;;;;;;;16.73;8.40;;;28.10;59.70;;;;;;5076441;28;20201;-73
2022/07/27 01:40:38;;;;;;;15.77;8.13;;;28.00;59.80;;;;;;5064595;28;20656;-74
2022/07/27 01:43:07;;;;;;;15.88;8.85;;;28.00;60.00;;;;;;5069020;28;20254;-73
2022/07/27 01:45:35;;;;;;;17.00;8.45;;;27.90;60.10;;;;;;5079903;28;20877;-74
2022/07/27 01:48:04;;;;;;;16.80;8.80;;;28.00;60.20;;;;;;5069011;28;20198;-74
2022/07/27 01:50:32;;;;;;;16.83;8.52;;;27.90;60.30;;;;;;5071778;28;20185;-74
2022/07/27 01:53:01;;;;;;;15.57;8.40;;;27.90;60.50;;;;;;5072719;28;20256;-74
2022/07/27 01:55:29;;;;;;;12.15;7.85;;;27.90;60.90;;;;;;5071879;28;20204;-73
2022/07/27 01:58:08;;;;;;;15.85;8.57;;;27.80;60.90;;;;;;5077458;28;20195;-73
2022/07/27 02:00:37;;;;;;;12.10;8.00;;;27.80;61.00;;;;;;5072228;28;20286;-78
2022/07/27 02:03:07;;;;;;;14.35;9.27;;;27.80;61.10;;;;;;5073516;28;20293;-76
2022/07/27 02:05:36;;;;;;;14.80;8.45;;;27.80;61.10;;;;;;5079534;28;20199;-76
2022/07/27 02:08:06;;;;;;;12.80;8.00;;;27.70;61.20;;;;;;5067785;28;20198;-76
2022/07/27 02:10:35;;;;;;;12.88;8.25;;;27.70;61.40;;;;;;5073930;28;20225;-76
2022/07/27 02:13:03;;;;;;;11.35;8.35;;;27.70;61.60;;;;;;5080028;28;20226;-76
2022/07/27 02:15:51;;;;;;;17.90;8.48;;;27.70;61.70;;;;;;5079360;28;20559;-76
2022/07/27 02:18:22;;;;;;;14.25;8.43;;;27.70;61.60;;;;;;5077001;28;20241;-77
2022/07/27 02:21:04;;;;;;;15.40;8.13;;;27.70;61.80;;;;;;5077271;28;20190;-76
2022/07/27 02:23:34;;;;;;;11.10;7.25;;;27.70;61.80;;;;;;5072771;28;20209;-76
2022/07/27 02:26:03;;;;;;;12.65;8.65;;;27.70;62.00;;;;;;5075182;28;20197;-76
2022/07/27 02:28:31;;;;;;;13.90;8.27;;;27.70;62.10;;;;;;5075168;28;20235;-76
2022/07/27 02:31:02;;;;;;;13.77;8.57;;;27.70;62.20;;;;;;5074255;28;20194;-78
2022/07/27 02:33:30;;;;;;;11.73;8.30;;;27.70;62.50;;;;;;5069351;28;20212;-76
2022/07/27 02:35:59;;;;;;;12.50;8.05;;;27.60;62.40;;;;;;5086783;28;20198;-76
2022/07/27 02:38:27;;;;;;;12.77;8.38;;;27.60;62.50;;;;;;5083090;28;20193;-75
2022/07/27 02:40:56;;;;;;;16.33;9.52;;;27.60;62.60;;;;;;5079625;28;20669;-76
2022/07/27 02:43:24;;;;;;;15.85;8.30;;;27.60;62.70;;;;;;5066063;28;20187;-75
2022/07/27 02:45:53;;;;;;;15.05;8.32;;;27.60;62.80;;;;;;5078713;28;20651;-76
2022/07/27 02:48:23;;;;;;;16.60;8.80;;;27.60;62.80;;;;;;5077072;28;20194;-76
2022/07/27 02:50:51;;;;;;;12.27;7.60;;;27.60;63.00;;;;;;5071457;28;20193;-75
2022/07/27 02:53:20;;;;;;;12.95;8.90;;;27.60;63.00;;;;;;5079834;28;20217;-75
2022/07/27 02:55:48;;;;;;;13.68;8.05;;;27.60;63.20;;;;;;5080791;28;20292;-76
2022/07/27 02:58:17;;;;;;;13.05;8.10;;;27.60;63.20;;;;;;5084835;28;20189;-76
2022/07/27 03:00:45;;;;;;;12.38;8.27;;;27.60;63.20;;;;;;5073261;28;20594;-76
2022/07/27 03:03:14;;;;;;;16.50;8.70;;;27.60;63.30;;;;;;5079597;28;20193;-76
2022/07/27 03:05:44;;;;;;;15.23;8.35;;;27.60;63.60;;;;;;5078361;28;20807;-77
2022/07/27 03:08:13;;;;;;;11.55;8.27;;;27.60;63.20;;;;;;5077209;28;20186;-76
2022/07/27 03:10:41;;;;;;;14.25;8.77;;;27.60;63.20;;;;;;5073927;28;20222;-76
2022/07/27 03:13:16;;;;;;;13.45;7.97;;;27.60;63.30;;;;;;5078292;28;20236;-75
2022/07/27 03:15:44;;;;;;;12.13;8.15;;;27.60;63.30;;;;;;5075118;28;20192;-76
2022/07/27 03:18:12;;;;;;;13.68;8.32;;;27.60;63.30;;;;;;5076154;28;20746;-76
2022/07/27 03:20:41;;;;;;;13.27;8.18;;;27.60;63.40;;;;;;5074446;28;20194;-76
2022/07/27 03:23:11;;;;;;;12.55;8.48;;;27.60;63.50;;;;;;5080113;28;20198;-76
2022/07/27 03:25:40;;;;;;;12.75;8.52;;;27.60;63.60;;;;;;5078333;28;20222;-76
2022/07/27 03:28:08;;;;;;;13.00;7.72;;;27.60;63.50;;;;;;5078384;28;20201;-76
2022/07/27 03:30:37;;;;;;;13.48;8.40;;;27.60;63.70;;;;;;5079959;28;20186;-76
2022/07/27 03:33:05;;;;;;;15.30;9.07;;;27.60;63.70;;;;;;5067065;28;20228;-76
2022/07/27 03:35:34;;;;;;;17.95;9.55;;;27.60;63.70;;;;;;5071546;28;20187;-78
2022/07/27 03:38:03;;;;;;;16.35;9.18;;;27.60;63.80;;;;;;5057187;28;20213;-79
2022/07/27 03:40:33;;;;;;;15.77;7.90;;;27.60;63.90;;;;;;5080332;28;20194;-76
2022/07/27 03:43:01;;;;;;;15.80;8.90;;;27.60;64.00;;;;;;5073073;28;20204;-76
2022/07/27 03:45:30;;;;;;;17.77;10.80;;;27.60;64.10;;;;;;5075356;28;20200;-76
2022/07/27 03:48:01;;;;;;;18.77;10.07;;;27.60;64.00;;;;;;5069163;28;20197;-77
2022/07/27 03:50:30;;;;;;;16.13;9.32;;;27.70;64.10;;;;;;5066332;28;20210;-76
2022/07/27 03:52:59;;;;;;;17.80;9.43;;;27.70;64.10;;;;;;5075463;28;20213;-76
2022/07/27 03:55:28;;;;;;;16.90;9.45;;;27.70;64.20;;;;;;5070489;28;21008;-76
2022/07/27 03:57:59;;;;;;;16.13;8.75;;;27.70;64.20;;;;;;5075567;28;20254;-76
2022/07/27 04:00:28;;;;;;;17.85;8.60;;;27.80;65.10;;;;;;5078074;28;20190;-76
2022/07/27 04:02:56;;;;;;;15.80;8.70;;;27.80;64.40;;;;;;5071494;28;20191;-76
2022/07/27 04:05:25;;;;;;;18.73;9.48;;;27.80;64.50;;;;;;5073569;28;20194;-76
2022/07/27 04:07:57;;;;;;;13.52;8.75;;;27.80;64.50;;;;;;5071493;28;20196;-77
2022/07/27 04:10:27;;;;;;;16.98;9.50;;;27.90;64.60;;;;;;5076753;28;20582;-77
2022/07/27 04:13:00;;;;;;;15.48;9.05;;;27.90;64.60;;;;;;5074152;28;20553;-77
2022/07/27 04:15:30;;;;;;;14.82;8.75;;;27.90;64.70;;;;;;5084620;28;20186;-78
2022/07/27 04:17:59;;;;;;;16.23;9.65;;;28.00;64.70;;;;;;5080166;28;20189;-76
2022/07/27 04:20:28;;;;;;;15.90;9.05;;;28.00;64.70;;;;;;5080868;28;20289;-77
2022/07/27 04:22:56;;;;;;;13.20;8.88;;;28.00;64.50;;;;;;5078074;28;20189;-76
2022/07/27 04:25:25;;;;;;;14.57;9.30;;;28.00;64.60;;;;;;5078827;28;20190;-77
2022/07/27 04:27:54;;;;;;;13.20;8.85;;;28.10;64.60;;;;;;5076702;28;20869;-79
2022/07/27 04:30:24;;;;;;;15.48;9.27;;;28.10;64.50;;;;;;5075043;28;20245;-79
2022/07/27 04:32:53;;;;;;;13.85;8.63;;;28.20;64.60;;;;;;5074175;28;20213;-80
2022/07/27 04:35:22;;;;;;;12.95;8.75;;;28.20;64.60;;;;;;5078754;28;20204;-79
2022/07/27 04:37:54;;;;;;;15.95;9.27;;;28.20;64.70;;;;;;5075375;28;20190;-75
2022/07/27 04:40:29;;;;;;;16.50;9.13;;;28.20;64.70;;;;;;5082318;28;20193;-75
2022/07/27 04:42:58;;;;;;;13.77;8.73;;;28.30;64.80;;;;;;5076105;28;20185;-79
2022/07/27 04:45:28;;;;;;;17.52;10.15;;;28.30;64.80;;;;;;5082398;28;20190;-77
2022/07/27 04:47:59;;;;;;;14.77;9.52;;;28.30;64.90;;;;;;5075285;28;20188;-76
2022/07/27 04:50:28;;;;;;;18.67;9.40;;;28.40;65.00;;;;;;5081829;28;20190;-75
2022/07/27 04:52:56;;;;;;;15.52;9.73;;;28.40;65.00;;;;;;5082131;28;20205;-76
2022/07/27 04:55:25;;;;;;;19.05;9.60;;;28.50;65.10;;;;;;5077085;28;20199;-76
2022/07/27 04:57:53;;;;;;;15.05;9.15;;;28.50;64.90;;;;;;5080930;28;20205;-76
2022/07/27 05:00:22;;;;;;;13.30;9.43;;;28.60;64.90;;;;;;5080578;28;20202;-76
2022/07/27 05:02:52;;;;;;;17.50;9.90;;;28.60;64.90;;;;;;5073284;28;20189;-76
2022/07/27 05:05:21;;;;;;;14.88;8.98;;;28.70;65.00;;;;;;5074853;28;20228;-77
2022/07/27 05:07:49;;;;;;;13.65;8.90;;;28.70;65.00;;;;;;5076450;28;21031;-78
2022/07/27 05:10:18;;;;;;;15.98;9.63;;;28.80;65.00;;;;;;5076935;28;20880;-77
2022/07/27 05:12:48;;;;;;;18.83;9.60;;;28.80;65.00;;;;;;5088773;28;20259;-77
2022/07/27 05:15:17;;;;;;;16.70;10.40;;;28.90;65.10;;;;;;5072919;28;20222;-78
2022/07/27 05:17:46;;;;;;;16.92;9.38;;;28.90;65.10;;;;;;5082102;28;20190;-78
2022/07/27 05:20:16;;;;;;;16.95;11.13;;;29.00;65.30;;;;;;5084318;28;20196;-80
2022/07/27 05:22:45;;;;;;;20.85;12.68;;;29.00;65.30;;;;;;5083321;28;20196;-80
2022/07/27 05:25:13;;;;;;;28.58;16.83;;;29.00;65.40;;;;;;5076445;28;20222;-78
2022/07/27 05:27:42;;;;;;;27.20;15.60;;;29.10;65.60;;;;;;5078027;28;20200;-79
2022/07/27 05:30:26;;;;;;;19.52;13.35;;;29.10;65.40;;;;;;5080950;28;20201;-79
2022/07/27 05:32:56;;;;;;;24.20;13.57;;;29.20;65.30;;;;;;5089984;28;20725;-78
2022/07/27 05:35:26;;;;;;;20.15;13.20;;;29.20;65.20;;;;;;5081832;28;20796;-79
2022/07/27 05:37:55;;;;;;;18.15;11.65;;;29.30;65.40;;;;;;5067881;28;20593;-79
2022/07/27 05:40:25;;;;;;;19.33;11.25;;;29.20;65.20;;;;;;5087468;28;20201;-78
2022/07/27 05:42:54;;;;;;;19.60;11.35;;;29.30;65.20;;;;;;5086389;28;20236;-79
2022/07/27 05:45:23;;;;;;;16.75;10.90;;;29.40;65.10;;;;;;5086531;28;20197;-78
2022/07/27 05:47:53;;;;;;;18.45;11.38;;;29.40;65.10;;;;;;5086941;28;20200;-78
2022/07/27 05:50:22;;;;;;;16.25;10.70;;;29.40;65.10;;;;;;5081104;28;20209;-79
2022/07/27 05:52:52;;;;;;;20.10;10.77;;;29.50;65.10;;;;;;5088553;28;20197;-79
2022/07/27 05:55:20;;;;;;;17.63;11.35;;;29.60;65.90;;;;;;5076837;28;20231;-79
2022/07/27 05:57:49;;;;;;;17.30;10.75;;;29.70;65.10;;;;;;5081094;28;20732;-78
2022/07/27 06:00:17;;;;;;;16.25;11.63;;;29.70;64.80;;;;;;5084199;28;20200;-82
2022/07/27 06:02:46;;;;;;;18.20;10.95;;;29.80;64.90;;;;;;5071550;28;20555;-78
2022/07/27 06:05:14;;;;;;;18.23;10.32;;;29.90;64.70;;;;;;5077972;28;20212;-79
2022/07/27 06:08:00;;;;;;;13.98;10.45;;;29.90;64.70;;;;;;5077219;28;20193;-79
2022/07/27 06:10:31;;;;;;;22.13;10.50;;;30.00;64.70;;;;;;5079437;28;20596;-78
2022/07/27 06:13:00;;;;;;;16.63;11.73;;;30.10;64.50;;;;;;5076504;28;20223;-75
2022/07/27 06:15:29;;;;;;;22.23;10.98;;;30.10;64.30;;;;;;5033027;28;20603;-80
2022/07/27 06:17:58;;;;;;;16.50;9.85;;;30.20;64.10;;;;;;5080771;28;20200;-77
2022/07/27 06:20:27;;;;;;;24.25;10.63;;;30.30;64.00;;;;;;5080641;28;20194;-77
2022/07/27 06:22:58;;;;;;;14.07;9.23;;;30.30;63.60;;;;;;5065228;28;20197;-81
2022/07/27 06:25:32;;;;;;;19.25;10.05;;;30.40;63.40;;;;;;5074080;28;20194;-77
2022/07/27 06:28:03;;;;;;;20.90;8.15;;;30.40;63.10;;;;;;5085367;28;20197;-77
2022/07/27 06:30:33;;;;;;;19.95;8.98;;;30.50;62.20;;;;;;5081432;28;20663;-76
2022/07/27 06:33:03;;;;;;;16.70;9.30;;;30.50;60.70;;;;;;5085963;28;20194;-78
2022/07/27 06:35:33;;;;;;;13.52;8.95;;;30.60;59.80;;;;;;5080697;28;20210;-76
2022/07/27 06:38:06;;;;;;;16.42;8.70;;;30.60;59.40;;;;;;5084899;28;20193;-78
2022/07/27 06:40:36;;;;;;;20.45;8.38;;;30.70;59.30;;;;;;5079147;28;20536;-78
2022/07/27 06:43:04;;;;;;;13.68;8.07;;;30.80;58.80;;;;;;5078426;28;20616;-77
2022/07/27 06:45:33;;;;;;;13.30;8.18;;;30.90;58.90;;;;;;5081733;28;20573;-77
2022/07/27 06:48:01;;;;;;;13.10;8.50;;;31.00;58.90;;;;;;5091060;28;20590;-79
2022/07/27 06:50:30;;;;;;;15.60;8.02;;;31.00;58.90;;;;;;5075609;28;20225;-79
2022/07/27 06:52:58;;;;;;;15.52;8.32;;;31.10;58.80;;;;;;5081260;28;20236;-79
2022/07/27 06:55:30;;;;;;;15.40;8.40;;;31.20;58.60;;;;;;5075755;28;20213;-76
2022/07/27 06:58:00;;;;;;;17.77;7.70;;;31.30;58.40;;;;;;5076581;28;20209;-76
2022/07/27 07:00:29;;;;;;;17.27;7.30;;;31.40;58.40;;;;;;5070656;28;20206;-78
2022/07/27 07:03:00;;;;;;;14.55;8.23;;;31.40;57.60;;;;;;5085408;28;20197;-79
2022/07/27 07:05:30;;;;;;;15.95;8.43;;;31.40;57.30;;;;;;5080699;28;20552;-78
2022/07/27 07:07:59;;;;;;;13.70;7.80;;;31.50;57.20;;;;;;5086335;28;20196;-80
2022/07/27 07:10:28;;;;;;;13.73;7.30;;;31.60;57.10;;;;;;5082156;28;20225;-78
2022/07/27 07:13:05;;;;;;;16.38;8.20;;;31.70;56.90;;;;;;5075680;28;20193;-78
2022/07/27 07:15:35;;;;;;;13.75;8.05;;;31.80;56.90;;;;;;5088011;28;20705;-77
2022/07/27 07:18:05;;;;;;;16.33;7.70;;;31.80;56.90;;;;;;5084551;28;20293;-78
2022/07/27 07:20:34;;;;;;;15.13;8.00;;;31.90;56.90;;;;;;5085574;28;20233;-78
2022/07/27 07:23:04;;;;;;;23.08;7.60;;;31.90;56.70;;;;;;5084400;28;20285;-77
2022/07/27 07:25:33;;;;;;;14.43;8.10;;;31.90;56.10;;;;;;5085985;28;20200;-78
2022/07/27 07:28:02;;;;;;;30.63;8.82;;;32.00;56.00;;;;;;5085741;28;20426;-78
2022/07/27 07:30:32;;;;;;;28.58;9.00;;;32.00;55.90;;;;;;5089622;28;20665;-77
2022/07/27 07:33:02;;;;;;;25.45;8.75;;;32.10;56.00;;;;;;5085723;28;20265;-78
2022/07/27 07:35:31;;;;;;;19.85;8.15;;;32.10;56.00;;;;;;5084838;28;20334;-77
2022/07/27 07:37:59;;;;;;;17.90;7.70;;;32.20;55.80;;;;;;5091410;28;20280;-77
2022/07/27 07:40:28;;;;;;;21.02;8.13;;;32.20;55.70;;;;;;5086490;28;20842;-77
2022/07/27 07:43:12;;;;;;;21.60;7.72;;;32.20;55.80;;;;;;5089269;28;20194;-77
2022/07/27 07:45:43;;;;;;;21.52;7.70;;;32.30;55.20;;;;;;5074995;28;20194;-78
2022/07/27 07:48:20;;;;;;;18.30;7.55;;;32.40;55.20;;;;;;5075717;28;20193;-77
2022/07/27 07:50:49;;;;;;;18.70;7.60;;;32.40;55.30;;;;;;5084113;28;20654;-78
2022/07/27 07:53:21;;;;;;;14.73;7.50;;;32.50;55.30;;;;;;5083559;28;20707;-77
2022/07/27 07:55:51;;;;;;;24.00;7.85;;;32.50;55.00;;;;;;5084506;28;20260;-76
2022/07/27 07:58:19;;;;;;;22.33;8.13;;;32.60;54.90;;;;;;5084908;28;20198;-78
2022/07/27 08:00:49;;;;;;;21.98;8.05;;;32.60;54.80;;;;;;5082421;28;20329;-77
2022/07/27 08:03:18;;;;;;;14.73;8.57;;;32.70;54.60;;;;;;5078958;28;20196;-77
2022/07/27 08:05:47;;;;;;;18.70;7.95;;;32.70;54.60;;;;;;5083990;28;20683;-77
2022/07/27 08:08:16;;;;;;;18.10;7.60;;;32.80;54.60;;;;;;5084464;28;20208;-76
2022/07/27 08:10:45;;;;;;;13.07;7.97;;;32.90;54.70;;;;;;5083365;28;20221;-77
2022/07/27 08:13:15;;;;;;;14.45;7.43;;;32.90;54.50;;;;;;5085529;28;20341;-76
2022/07/27 08:15:51;;;;;;;13.18;7.75;;;33.00;54.50;;;;;;5088765;28;20218;-77
2022/07/27 08:18:20;;;;;;;19.30;8.13;;;33.10;54.30;;;;;;5084643;28;20643;-77
2022/07/27 08:20:49;;;;;;;16.55;7.30;;;33.10;53.90;;;;;;5082945;28;20551;-78
2022/07/27 08:23:17;;;;;;;14.63;7.88;;;33.10;53.70;;;;;;5084865;28;20198;-77
2022/07/27 08:25:46;;;;;;;15.88;7.57;;;33.20;53.70;;;;;;5086389;28;20194;-77
2022/07/27 08:28:14;;;;;;;15.05;7.72;;;33.30;53.70;;;;;;5083927;28;20261;-78
2022/07/27 08:30:43;;;;;;;13.15;8.30;;;33.30;53.60;;;;;;5084170;28;20842;-75
2022/07/27 08:33:13;;;;;;;18.30;7.70;;;33.40;53.20;;;;;;5095138;28;20900;-78
2022/07/27 08:35:42;;;;;;;15.30;7.97;;;33.40;53.10;;;;;;5083651;28;20232;-77
2022/07/27 08:38:10;;;;;;;15.68;7.80;;;33.40;53.00;;;;;;5084138;28;20198;-78
2022/07/27 08:40:40;;;;;;;15.38;7.40;;;33.50;53.10;;;;;;5077339;28;20285;-77
2022/07/27 08:43:14;;;;;;;13.13;7.82;;;33.60;52.90;;;;;;5090103;28;20233;-77
2022/07/27 08:45:55;;;;;;;13.25;7.10;;;33.60;52.80;;;;;;5088981;28;20247;-78
2022/07/27 08:48:25;;;;;;;12.85;7.53;;;33.70;52.70;;;;;;5083692;28;20204;-77
2022/07/27 08:50:54;;;;;;;19.77;7.32;;;33.70;52.70;;;;;;5085119;28;20742;-77
2022/07/27 08:53:23;;;;;;;15.35;7.70;;;33.80;52.60;;;;;;5083121;28;20204;-78
2022/07/27 08:55:52;;;;;;;14.80;7.05;;;33.90;52.50;;;;;;5084133;28;20233;-77
2022/07/27 08:58:20;;;;;;;11.50;7.10;;;33.90;52.30;;;;;;5075548;28;20285;-78
2022/07/27 09:00:49;;;;;;;9.93;6.82;;;34.00;51.60;;;;;;5081136;28;20197;-77
2022/07/27 09:03:21;;;;;;;11.80;7.13;;;34.00;51.60;;;;;;5081403;28;20193;-78
2022/07/27 09:05:52;;;;;;;12.75;6.93;;;34.10;51.30;;;;;;5081727;28;20194;-77
2022/07/27 09:08:24;;;;;;;20.13;7.53;;;34.10;50.70;;;;;;5083832;28;20198;-77
2022/07/27 09:10:54;;;;;;;10.75;7.28;;;34.20;50.60;;;;;;5079188;28;20225;-78
2022/07/27 09:13:26;;;;;;;19.70;7.95;;;34.20;50.80;;;;;;5074149;28;20525;-76
2022/07/27 09:15:56;;;;;;;16.83;7.13;;;34.30;51.00;;;;;;5059860;28;20225;-77
2022/07/27 09:18:45;;;;;;;11.98;6.72;;;34.30;50.90;;;;;;5068102;28;20726;-77
2022/07/27 09:21:17;;;;;;;10.95;6.90;;;34.40;50.70;;;;;;5077313;28;20233;-76
2022/07/27 09:23:47;;;;;;;9.60;6.22;;;34.40;50.60;;;;;;5073688;28;20942;-77
2022/07/27 09:26:19;;;;;;;12.98;6.68;;;34.50;50.30;;;;;;5077666;28;20819;-77
2022/07/27 09:29:07;;;;;;;10.82;6.32;;;34.60;49.40;;;;;;5078421;28;20239;-77
2022/07/27 09:31:42;;;;;;;7.95;5.88;;;34.60;49.10;;;;;;5071267;28;20247;-77
2022/07/27 09:34:12;;;;;;;10.07;5.30;;;34.60;49.20;;;;;;5076862;28;20236;-75
2022/07/27 09:36:53;;;;;;;7.07;5.20;;;34.70;49.20;;;;;;5074506;28;20209;-76
2022/07/27 09:39:23;;;;;;;7.32;5.70;;;34.70;47.40;;;;;;5074476;28;20591;-77
2022/07/27 09:41:54;;;;;;;8.43;5.75;;;34.80;47.20;;;;;;5077723;28;20216;-76
2022/07/27 09:44:34;;;;;;;12.32;5.90;;;34.80;47.30;;;;;;5070275;28;20283;-77
2022/07/27 09:47:21;;;;;;;11.65;6.20;;;34.90;47.00;;;;;;5075279;28;20186;-78
2022/07/27 09:49:50;;;;;;;6.93;5.70;;;34.90;46.50;;;;;;5072751;28;20190;-75
2022/07/27 09:52:28;;;;;;;10.15;5.15;;;35.00;46.80;;;;;;5079600;28;20239;-76
2022/07/27 09:55:03;;;;;;;7.20;4.82;;;35.00;45.90;;;;;;5067953;28;20587;-76
2022/07/27 09:57:31;;;;;;;10.20;4.95;;;35.10;46.00;;;;;;5079815;28;20209;-77
2022/07/27 10:00:10;;;;;;;8.65;5.20;;;35.10;45.30;;;;;;5090207;28;20276;-76
2022/07/27 10:02:39;;;;;;;8.00;4.78;;;35.20;45.30;;;;;;5081752;28;20181;-75
2022/07/27 10:05:08;;;;;;;6.80;4.93;;;35.30;45.30;;;;;;5074415;28;20194;-77
2022/07/27 10:07:39;;;;;;;7.40;5.15;;;35.30;44.70;;;;;;5073747;28;20759;-75
2022/07/27 10:10:08;;;;;;;11.88;4.80;;;35.40;44.20;;;;;;5073028;28;20210;-73
2022/07/27 10:12:40;;;;;;;7.38;4.80;;;35.40;43.80;;;;;;5069106;28;20210;-75
2022/07/27 10:15:09;;;;;;;6.65;4.80;;;35.50;43.80;;;;;;5079090;28;20189;-75
2022/07/27 10:17:39;;;;;;;7.45;4.85;;;35.50;43.70;;;;;;5079466;28;20213;-74
2022/07/27 10:20:10;;;;;;;7.25;5.10;;;35.60;43.90;;;;;;5072608;28;20190;-75
2022/07/27 10:22:57;;;;;;;5.82;4.65;;;35.70;44.00;;;;;;5074984;28;20194;-76
2022/07/27 10:25:28;;;;;;;8.30;5.18;;;35.70;43.80;;;;;;5077572;28;20199;-76
2022/07/27 10:28:11;;;;;;;6.25;4.63;;;35.80;43.80;;;;;;5081699;28;20202;-77
2022/07/27 10:30:39;;;;;;;8.30;4.70;;;35.90;44.20;;;;;;5079626;28;20196;-76
2022/07/27 10:33:16;;;;;;;7.90;5.20;;;36.00;44.10;;;;;;5085300;28;20202;-75
2022/07/27 10:35:44;;;;;;;6.43;5.28;;;36.00;43.90;;;;;;5082799;28;20206;-77
2022/07/27 10:38:17;;;;;;;7.15;5.40;;;36.10;44.00;;;;;;5084547;28;20196;-75
2022/07/27 10:40:46;;;;;;;7.25;4.82;;;36.20;43.90;;;;;;5068998;28;20228;-75
2022/07/27 10:43:20;;;;;;;12.43;5.43;;;36.20;43.90;;;;;;5071094;28;20201;-74
2022/07/27 10:45:50;;;;;;;7.28;5.05;;;36.30;43.80;;;;;;5076635;28;20184;-75
2022/07/27 10:48:39;;;;;;;7.22;5.20;;;36.30;43.70;;;;;;5072453;28;20186;-75
2022/07/27 10:51:16;;;;;;;8.05;6.13;;;36.40;43.50;;;;;;5082009;28;20306;-75
2022/07/27 10:53:46;;;;;;;9.80;5.72;;;36.40;43.20;;;;;;5073425;28;20596;-74
2022/07/27 10:56:45;;;;;;;7.45;5.43;;;36.50;43.40;;;;;;5080645;28;20698;-75
2022/07/27 10:59:14;;;;;;;9.80;5.75;;;36.50;43.10;;;;;;5068844;28;21005;-77
2022/07/27 11:01:57;;;;;;;7.45;5.85;;;36.50;43.10;;;;;;5076534;28;20193;-75
2022/07/27 11:04:28;;;;;;;6.25;4.75;;;36.50;42.80;;;;;;5069625;28;20194;-77
2022/07/27 11:06:59;;;;;;;8.10;5.28;;;36.60;43.00;;;;;;5082792;28;20252;-76
2022/07/27 11:09:51;;;;;;;8.43;5.35;;;36.70;43.00;;;;;;5081461;28;20275;-78
2022/07/27 11:12:36;;;;;;;5.93;5.05;;;36.80;43.10;;;;;;5072172;28;20835;-76
2022/07/27 11:15:06;;;;;;;6.85;5.68;;;36.80;42.80;;;;;;5072013;28;20274;-78
2022/07/27 11:17:34;;;;;;;8.02;5.22;;;36.90;42.90;;;;;;5075245;28;20216;-76
2022/07/27 11:20:23;;;;;;;7.65;6.10;;;37.00;42.60;;;;;;5075359;28;20663;-74
2022/07/27 11:23:01;;;;;;;10.43;5.88;;;36.90;40.70;;;;;;5068805;28;20849;-76
2022/07/27 11:26:09;;;;;;;9.52;5.50;;;37.00;40.50;;;;;;5076200;28;21232;-74
2022/07/27 11:28:38;;;;;;;6.30;5.28;;;37.00;41.20;;;;;;5071399;28;20189;-76
2022/07/27 11:31:08;;;;;;;8.02;5.60;;;37.20;41.10;;;;;;5080451;28;20186;-78
2022/07/27 11:33:36;;;;;;;6.90;5.28;;;37.10;41.30;;;;;;5080208;28;20190;-77
2022/07/27 11:36:07;;;;;;;7.00;5.30;;;37.10;41.30;;;;;;5084358;28;20208;-76
2022/07/27 11:38:46;;;;;;;10.10;5.25;;;37.00;41.10;;;;;;5078589;28;20575;-75
2022/07/27 11:41:26;;;;;;;8.13;4.80;;;37.00;40.00;;;;;;5080132;28;20193;-75
2022/07/27 11:44:17;;;;;;;8.32;5.10;;;37.10;39.60;;;;;;5072764;28;20875;-75
2022/07/27 11:46:46;;;;;;;7.32;5.32;;;37.10;39.70;;;;;;5073532;28;20194;-78
2022/07/27 11:49:19;;;;;;;7.82;5.30;;;37.10;39.50;;;;;;5068574;28;20197;-77
2022/07/27 11:51:49;;;;;;;7.95;5.68;;;37.20;40.00;;;;;;5076715;28;20273;-77
2022/07/27 11:54:20;;;;;;;7.22;5.55;;;37.10;40.00;;;;;;5082490;28;20240;-78
2022/07/27 11:56:52;;;;;;;8.98;5.35;;;37.10;40.00;;;;;;5077251;28;20767;-78
2022/07/27 11:59:22;;;;;;;9.82;4.82;;;37.10;40.30;;;;;;5063262;28;20190;-76
2022/07/27 12:01:52;;;;;;;6.85;5.70;;;37.20;40.50;;;;;;5072085;28;20190;-75
2022/07/27 12:04:23;;;;;;;11.13;5.78;;;37.20;40.40;;;;;;5076389;28;20201;-77
2022/07/27 12:07:02;;;;;;;6.50;5.05;;;37.30;40.00;;;;;;5069759;28;20194;-78
2022/07/27 12:09:33;;;;;;;7.65;5.68;;;37.40;40.00;;;;;;5074885;28;20741;-76
2022/07/27 12:12:13;;;;;;;6.78;5.18;;;37.50;40.10;;;;;;5081350;28;20606;-77
2022/07/27 12:14:45;;;;;;;8.75;6.00;;;37.50;38.60;;;;;;5072064;28;20194;-78
2022/07/27 12:17:26;;;;;;;9.85;6.07;;;37.50;39.10;;;;;;5063935;28;20901;-77
2022/07/27 12:20:01;;;;;;;8.40;5.60;;;37.60;38.90;;;;;;5067411;28;20745;-77
2022/07/27 12:22:35;;;;;;;7.00;5.50;;;37.60;38.40;;;;;;5081750;28;20779;-75
2022/07/27 12:25:07;;;;;;;9.07;6.60;;;37.60;38.20;;;;;;5076425;28;20185;-77
2022/07/27 12:27:55;;;;;;;8.30;5.80;;;37.60;38.70;;;;;;5086262;28;20706;-77
2022/07/27 12:30:31;;;;;;;8.18;5.60;;;37.50;38.90;;;;;;5071006;28;20186;-74
2022/07/27 12:33:01;;;;;;;7.82;5.32;;;37.60;38.80;;;;;;5081098;28;20330;-76
2022/07/27 12:35:33;;;;;;;8.73;5.65;;;37.60;38.80;;;;;;5067712;28;20186;-78
2022/07/27 12:38:06;;;;;;;8.25;5.63;;;37.70;38.60;;;;;;5074942;28;20232;-78
2022/07/27 12:40:45;;;;;;;7.78;5.65;;;37.70;38.60;;;;;;5081866;28;20705;-78
2022/07/27 12:43:18;;;;;;;7.60;5.03;;;37.70;38.50;;;;;;5080829;28;20189;-79
2022/07/27 12:45:48;;;;;;;7.18;4.88;;;37.80;38.70;;;;;;5074061;28;20996;-77
2022/07/27 12:48:18;;;;;;;7.78;5.60;;;37.80;39.10;;;;;;5081839;28;20244;-79
2022/07/27 12:50:49;;;;;;;9.52;5.10;;;37.90;39.30;;;;;;5073836;28;20679;-77
2022/07/27 12:53:17;;;;;;;8.00;5.60;;;37.90;38.60;;;;;;5076124;28;20197;-77
2022/07/27 12:55:46;;;;;;;11.90;5.93;;;37.80;38.80;;;;;;5078818;28;20566;-76
2022/07/27 12:58:15;;;;;;;9.27;5.90;;;37.80;38.10;;;;;;5081449;28;20221;-78